Time;durP1;ratioP1;P1;durP2;ratioP2;P2;SDS_P1;SDS_P2;PMS_P1;PMS_P2;Temp;Humidity;BMP_temperature;BMP_pressure;BME280_temperature;BME280_humidity;BME280_pressure;Samples;Min_cycle;Max_cycle;Signal;HPM_P1;HPM_P2
2023/04/29 00:00:48;;;;;;;;;;;;;;;13.87;nan;100185.50;5036332;28;19922;-85
2023/04/29 00:03:13;;;;;;;;;;;;;;;13.87;nan;100182.84;5044128;28;20282;-84
2023/04/29 00:05:39;;;;;;;;;;;;;;;13.85;nan;100177.72;5030293;28;19921;-84
2023/04/29 00:08:04;;;;;;;;;;;;;;;13.80;nan;100177.44;5042186;28;20418;-84
2023/04/29 00:10:29;;;;;;;;;;;;;;;13.76;nan;100181.47;5052904;28;20383;-84
2023/04/29 00:12:54;;;;;;;;;;;;;;;13.73;nan;100176.47;5042201;28;19939;-84
2023/04/29 00:15:20;;;;;;;;;;;;;;;13.73;nan;100179.13;5042198;28;20012;-84
2023/04/29 00:17:45;;;;;;;;;;;;;;;13.70;nan;100182.16;5033696;28;19925;-84
2023/04/29 00:20:11;;;;;;;;;;;;;;;13.68;nan;100181.53;5035890;28;20417;-84
2023/04/29 00:22:36;;;;;;;;;;;;;;;13.67;nan;100182.53;5032574;28;19924;-83
2023/04/29 00:25:03;;;;;;;;;;;;;;;13.68;nan;100177.06;5054685;28;19917;-84
2023/04/29 00:27:28;;;;;;;;;;;;;;;13.68;nan;100185.03;5033471;28;19964;-84
2023/04/29 00:29:53;;;;;;;;;;;;;;;13.69;nan;100184.00;5032719;28;20324;-84
2023/04/29 00:32:18;;;;;;;;;;;;;;;13.71;nan;100182.00;5048165;28;19917;-83
2023/04/29 00:34:43;;;;;;;;;;;;;;;13.72;nan;100180.16;5028497;28;19924;-84
2023/04/29 00:37:12;;;;;;;;;;;;;;;13.72;nan;100188.94;5038336;28;20456;-84
2023/04/29 00:39:37;;;;;;;;;;;;;;;13.73;nan;100176.47;5035890;28;19920;-84
2023/04/29 00:42:02;;;;;;;;;;;;;;;13.70;nan;100190.97;5047888;28;19924;-84
2023/04/29 00:44:27;;;;;;;;;;;;;;;13.68;nan;100182.38;5036266;28;19916;-84
2023/04/29 00:46:53;;;;;;;;;;;;;;;13.63;nan;100187.38;5045190;28;20334;-84
2023/04/29 00:49:18;;;;;;;;;;;;;;;13.61;nan;100192.06;5052695;28;19921;-84
2023/04/29 00:51:44;;;;;;;;;;;;;;;13.59;nan;100186.09;5050542;28;19928;-84
2023/04/29 00:54:09;;;;;;;;;;;;;;;13.57;nan;100191.59;5040966;28;19967;-84
2023/04/29 00:56:36;;;;;;;;;;;;;;;13.53;nan;100198.25;5036129;28;19971;-84
2023/04/29 00:59:02;;;;;;;;;;;;;;;13.49;nan;100193.47;5053726;28;19921;-84
2023/04/29 01:01:28;;;;;;;;;;;;;;;13.43;nan;100194.22;5035611;28;19923;-84
2023/04/29 01:03:53;;;;;;;;;;;;;;;13.40;nan;100194.56;5048153;28;19921;-84
2023/04/29 01:06:18;;;;;;;;;;;;;;;13.34;nan;100194.25;5038239;28;19925;-84
2023/04/29 01:08:44;;;;;;;;;;;;;;;13.30;nan;100190.31;5030330;28;19929;-85
2023/04/29 01:11:10;;;;;;;;;;;;;;;13.22;nan;100190.34;5035315;28;19917;-84
2023/04/29 01:13:43;;;;;;;;;;;;;;;13.14;nan;100185.09;5047207;28;19978;-84
2023/04/29 01:16:10;;;;;;;;;;;;;;;13.07;nan;100189.47;5053524;28;19982;-84
2023/04/29 01:18:38;;;;;;;;;;;;;;;13.03;nan;100182.84;5025238;28;19956;-84
2023/04/29 01:21:03;;;;;;;;;;;;;;;13.00;nan;100181.38;5034997;28;19921;-84
2023/04/29 01:23:28;;;;;;;;;;;;;;;13.00;nan;100191.16;5032567;28;20020;-84
2023/04/29 01:25:54;;;;;;;;;;;;;;;12.99;nan;100190.34;5053128;28;19924;-85
2023/04/29 01:28:28;;;;;;;;;;;;;;;12.99;nan;100192.16;5038124;28;19963;-84
2023/04/29 01:30:53;;;;;;;;;;;;;;;13.00;nan;100196.47;5041626;28;19925;-84
2023/04/29 01:33:30;;;;;;;;;;;;;;;13.00;nan;100191.16;5032188;28;20332;-84
2023/04/29 01:36:04;;;;;;;;;;;;;;;12.98;nan;100188.69;5028226;28;19956;-84
2023/04/29 01:38:43;;;;;;;;;;;;;;;12.93;nan;100186.53;5026735;28;19924;-84
2023/04/29 01:41:16;;;;;;;;;;;;;;;12.90;nan;100184.25;5024060;28;19925;-84
2023/04/29 01:43:42;;;;;;;;;;;;;;;12.87;nan;100192.56;5051955;28;19924;-84
2023/04/29 01:46:13;;;;;;;;;;;;;;;12.88;nan;100188.09;5034431;28;19917;-84
2023/04/29 01:48:39;;;;;;;;;;;;;;;12.88;nan;100183.59;5053547;28;19943;-83
2023/04/29 01:51:05;;;;;;;;;;;;;;;12.90;nan;100192.22;5040373;28;19971;-84
2023/04/29 01:53:31;;;;;;;;;;;;;;;12.89;nan;100195.84;5034366;28;20185;-84
2023/04/29 01:55:56;;;;;;;;;;;;;;;12.87;nan;100203.19;5053168;28;19972;-84
2023/04/29 01:58:22;;;;;;;;;;;;;;;12.90;nan;100207.31;5042253;28;19921;-84
2023/04/29 02:00:47;;;;;;;;;;;;;;;12.93;nan;100204.31;5044222;28;20393;-85
2023/04/29 02:03:12;;;;;;;;;;;;;;;12.93;nan;100205.13;5027835;28;19928;-84
2023/04/29 02:05:38;;;;;;;;;;;;;;;12.95;nan;100204.97;5041303;28;19920;-84
2023/04/29 02:08:06;;;;;;;;;;;;;;;12.95;nan;100211.09;5027885;28;19931;-85
2023/04/29 02:10:31;;;;;;;;;;;;;;;12.95;nan;100204.97;5034407;28;19924;-84
2023/04/29 02:12:56;;;;;;;;;;;;;;;12.93;nan;100206.97;5052110;28;19924;-84
2023/04/29 02:15:21;;;;;;;;;;;;;;;12.93;nan;100212.28;5044019;28;20369;-85
2023/04/29 02:17:47;;;;;;;;;;;;;;;12.92;nan;100213.28;5031170;28;19925;-84
2023/04/29 02:20:12;;;;;;;;;;;;;;;12.93;nan;100214.91;5022388;28;20038;-84
2023/04/29 02:22:38;;;;;;;;;;;;;;;12.93;nan;100226.34;5024859;28;19928;-84
2023/04/29 02:25:03;;;;;;;;;;;;;;;12.94;nan;100219.22;5031599;28;19917;-85
2023/04/29 02:27:28;;;;;;;;;;;;;;;12.97;nan;100229.50;5028885;28;19924;-85
2023/04/29 02:29:53;;;;;;;;;;;;;;;12.95;nan;100231.50;5031732;28;19971;-84
2023/04/29 02:32:21;;;;;;;;;;;;;;;12.94;nan;100232.47;5032983;28;19952;-85
2023/04/29 02:34:46;;;;;;;;;;;;;;;12.93;nan;100231.66;5028661;28;19925;-84
2023/04/29 02:37:11;;;;;;;;;;;;;;;12.90;nan;100231.19;5029532;28;19925;-84
2023/04/29 02:39:37;;;;;;;;;;;;;;;12.85;nan;100231.72;5031289;28;19932;-84
2023/04/29 02:42:02;;;;;;;;;;;;;;;12.80;nan;100239.38;5049949;28;19979;-84
2023/04/29 02:44:28;;;;;;;;;;;;;;;12.77;nan;100230.94;5036739;28;19960;-84
2023/04/29 02:46:53;;;;;;;;;;;;;;;12.70;nan;100233.44;5025559;28;19939;-84
2023/04/29 02:49:18;;;;;;;;;;;;;;;12.65;nan;100241.91;5041132;28;19970;-84
2023/04/29 02:51:43;;;;;;;;;;;;;;;12.60;nan;100240.78;5040135;28;19965;-84
2023/04/29 02:54:10;;;;;;;;;;;;;;;12.49;nan;100240.16;5025343;28;19917;-85
2023/04/29 02:56:35;;;;;;;;;;;;;;;12.43;nan;100240.84;5040316;28;19925;-85
2023/04/29 02:59:00;;;;;;;;;;;;;;;12.35;nan;100232.91;5045436;28;19921;-84
2023/04/29 03:01:26;;;;;;;;;;;;;;;12.28;nan;100231.94;5041171;28;19921;-84
2023/04/29 03:03:51;;;;;;;;;;;;;;;12.16;nan;100235.97;5037866;28;19921;-84
2023/04/29 03:06:16;;;;;;;;;;;;;;;12.09;nan;100238.44;5027984;28;20018;-84
2023/04/29 03:08:42;;;;;;;;;;;;;;;12.04;nan;100244.25;5029970;28;20239;-84
2023/04/29 03:11:07;;;;;;;;;;;;;;;12.04;nan;100238.97;5028706;28;19918;-84
2023/04/29 03:13:32;;;;;;;;;;;;;;;12.05;nan;100245.06;5030780;28;19978;-84
2023/04/29 03:15:59;;;;;;;;;;;;;;;12.05;nan;100240.59;5027577;28;20015;-84
2023/04/29 03:18:24;;;;;;;;;;;;;;;12.02;nan;100240.13;5027754;28;19928;-84
2023/04/29 03:20:49;;;;;;;;;;;;;;;11.97;nan;100237.97;5050025;28;19917;-84
2023/04/29 03:23:15;;;;;;;;;;;;;;;11.89;nan;100241.47;5031563;28;19923;-84
2023/04/29 03:25:40;;;;;;;;;;;;;;;11.82;nan;100243.09;5033137;28;20016;-84
2023/04/29 03:28:05;;;;;;;;;;;;;;;11.77;nan;100236.63;5031513;28;19987;-84
2023/04/29 03:30:30;;;;;;;;;;;;;;;11.75;nan;100249.22;5031782;28;20304;-84
2023/04/29 03:32:56;;;;;;;;;;;;;;;11.71;nan;100250.56;5031586;28;19982;-85
2023/04/29 03:35:21;;;;;;;;;;;;;;;11.66;nan;100243.94;5041759;28;20540;-84
2023/04/29 03:37:46;;;;;;;;;;;;;;;11.63;nan;100246.91;5028354;28;19921;-85
2023/04/29 03:40:12;;;;;;;;;;;;;;;11.60;nan;100252.50;5028305;28;20408;-84
2023/04/29 03:42:37;;;;;;;;;;;;;;;11.60;nan;100251.69;5044905;28;19928;-84
2023/04/29 03:45:02;;;;;;;;;;;;;;;11.59;nan;100250.06;5048507;28;20003;-84
2023/04/29 03:47:27;;;;;;;;;;;;;;;11.60;nan;100249.88;5041503;28;20559;-83
2023/04/29 03:49:52;;;;;;;;;;;;;;;11.62;nan;100250.53;5051625;28;19916;-84
2023/04/29 03:52:18;;;;;;;;;;;;;;;11.64;nan;100260.97;5044814;28;19977;-84
2023/04/29 03:54:43;;;;;;;;;;;;;;;11.61;nan;100261.31;5029979;28;20291;-84
2023/04/29 03:57:08;;;;;;;;;;;;;;;11.62;nan;100262.97;5032350;28;20406;-84
2023/04/29 03:59:33;;;;;;;;;;;;;;;11.61;nan;100264.78;5022632;28;20458;-84
2023/04/29 04:01:59;;;;;;;;;;;;;;;11.60;nan;100263.09;5028559;28;19921;-84
2023/04/29 04:04:25;;;;;;;;;;;;;;;11.61;nan;100263.97;5030545;28;20384;-84
2023/04/29 04:06:50;;;;;;;;;;;;;;;11.64;nan;100268.91;5028951;28;20588;-84
2023/04/29 04:09:19;;;;;;;;;;;;;;;11.65;nan;100278.50;5031525;28;19921;-84
2023/04/29 04:11:44;;;;;;;;;;;;;;;11.67;nan;100277.34;5046806;28;19947;-84
2023/04/29 04:14:09;;;;;;;;;;;;;;;11.69;nan;100280.66;5024704;28;19917;-84
2023/04/29 04:16:35;;;;;;;;;;;;;;;11.73;nan;100282.97;5027945;28;19921;-84
2023/04/29 04:19:00;;;;;;;;;;;;;;;11.78;nan;100280.69;5026369;28;20004;-85
2023/04/29 04:21:26;;;;;;;;;;;;;;;11.78;nan;100292.09;5025489;28;19917;-84
2023/04/29 04:23:51;;;;;;;;;;;;;;;11.79;nan;100287.63;5048307;28;19924;-84
2023/04/29 04:26:17;;;;;;;;;;;;;;;11.82;nan;100292.59;5023228;28;19928;-84
2023/04/29 04:28:42;;;;;;;;;;;;;;;11.84;nan;100295.91;5031401;28;20390;-84
2023/04/29 04:31:07;;;;;;;;;;;;;;;11.86;nan;100292.09;5049866;28;20435;-85
2023/04/29 04:33:33;;;;;;;;;;;;;;;11.91;nan;100299.56;5022003;28;19984;-84
2023/04/29 04:35:58;;;;;;;;;;;;;;;11.95;nan;100300.09;5044214;28;20015;-85
2023/04/29 04:38:26;;;;;;;;;;;;;;;11.98;nan;100302.41;5026184;28;19917;-85
2023/04/29 04:40:51;;;;;;;;;;;;;;;12.04;nan;100312.34;5020204;28;19971;-84
2023/04/29 04:43:17;;;;;;;;;;;;;;;12.05;nan;100314.81;5027768;28;19921;-84
2023/04/29 04:45:42;;;;;;;;;;;;;;;12.06;nan;100318.28;5031857;28;19949;-84
2023/04/29 04:48:07;;;;;;;;;;;;;;;12.07;nan;100317.28;5047895;28;19923;-84
2023/04/29 04:50:32;;;;;;;;;;;;;;;12.08;nan;100318.94;5034246;28;19924;-84
2023/04/29 04:52:57;;;;;;;;;;;;;;;12.10;nan;100317.78;5047276;28;19920;-84
2023/04/29 04:55:23;;;;;;;;;;;;;;;12.14;nan;100318.28;5044913;28;19943;-84
2023/04/29 04:57:48;;;;;;;;;;;;;;;12.15;nan;100321.75;5031078;28;19921;-84
2023/04/29 05:00:14;;;;;;;;;;;;;;;12.18;nan;100319.63;5034462;28;19985;-84
2023/04/29 05:02:39;;;;;;;;;;;;;;;12.20;nan;100322.06;5041813;28;20116;-84
2023/04/29 05:05:04;;;;;;;;;;;;;;;12.22;nan;100325.41;5032720;28;19924;-84
2023/04/29 05:07:30;;;;;;;;;;;;;;;12.23;nan;100337.69;5029626;28;19921;-84
2023/04/29 05:09:55;;;;;;;;;;;;;;;12.22;nan;100338.66;5038021;28;19920;-84
2023/04/29 05:12:20;;;;;;;;;;;;;;;12.19;nan;100342.47;5023110;28;19940;-84
2023/04/29 05:14:45;;;;;;;;;;;;;;;12.18;nan;100339.97;5027323;28;19975;-84
2023/04/29 05:17:10;;;;;;;;;;;;;;;12.15;nan;100351.75;5026556;28;20028;-84
2023/04/29 05:19:36;;;;;;;;;;;;;;;12.14;nan;100357.22;5032697;28;19924;-84
2023/04/29 05:22:01;;;;;;;;;;;;;;;12.14;nan;100344.78;5045016;28;19967;-84
2023/04/29 05:24:26;;;;;;;;;;;;;;;12.15;nan;100356.22;5030117;28;19971;-84
2023/04/29 05:26:53;;;;;;;;;;;;;;;12.13;nan;100360.84;5033716;28;20349;-84
2023/04/29 05:29:18;;;;;;;;;;;;;;;12.11;nan;100363.69;5035136;28;19927;-84
2023/04/29 05:31:43;;;;;;;;;;;;;;;12.15;nan;100366.81;5031254;28;20458;-84
2023/04/29 05:34:08;;;;;;;;;;;;;;;12.18;nan;100367.34;5031234;28;19975;-84
2023/04/29 05:36:33;;;;;;;;;;;;;;;12.22;nan;100376.59;5048706;28;19925;-84
2023/04/29 05:38:59;;;;;;;;;;;;;;;12.24;nan;100377.25;5027268;28;20416;-84
2023/04/29 05:41:24;;;;;;;;;;;;;;;12.28;nan;100378.59;5029184;28;19967;-84
2023/04/29 05:43:49;;;;;;;;;;;;;;;12.30;nan;100376.59;5026885;28;19918;-84
2023/04/29 05:46:15;;;;;;;;;;;;;;;12.32;nan;100385.22;5019841;28;19924;-84
2023/04/29 05:48:40;;;;;;;;;;;;;;;12.36;nan;100385.69;5039398;28;20026;-84
2023/04/29 05:51:06;;;;;;;;;;;;;;;12.38;nan;100388.19;5058894;28;19921;-84
2023/04/29 05:53:32;;;;;;;;;;;;;;;12.41;nan;100388.69;5031233;28;20030;-84
2023/04/29 05:55:57;;;;;;;;;;;;;;;12.41;nan;100395.81;5030361;28;19936;-84
2023/04/29 05:58:22;;;;;;;;;;;;;;;12.40;nan;100400.28;5039954;28;19917;-84
2023/04/29 06:00:48;;;;;;;;;;;;;;;12.37;nan;100402.44;5029787;28;19920;-84
2023/04/29 06:03:13;;;;;;;;;;;;;;;12.35;nan;100401.75;5043085;28;20478;-84
2023/04/29 06:05:39;;;;;;;;;;;;;;;12.32;nan;100403.78;5033751;28;19924;-84
2023/04/29 06:08:05;;;;;;;;;;;;;;;12.29;nan;100406.75;5051533;28;19917;-84
2023/04/29 06:10:31;;;;;;;;;;;;;;;12.21;nan;100405.94;5051560;28;19924;-84
2023/04/29 06:12:56;;;;;;;;;;;;;;;12.13;nan;100417.34;5033754;28;19917;-84
2023/04/29 06:15:21;;;;;;;;;;;;;;;12.09;nan;100408.91;5038103;28;19925;-84
2023/04/29 06:17:47;;;;;;;;;;;;;;;12.06;nan;100419.84;5041343;28;19979;-84
2023/04/29 06:20:12;;;;;;;;;;;;;;;12.08;nan;100415.22;5021735;28;19921;-84
2023/04/29 06:22:38;;;;;;;;;;;;;;;12.15;nan;100411.88;5030829;28;20556;-84
2023/04/29 06:25:04;;;;;;;;;;;;;;;12.18;nan;100419.50;5039338;28;19985;-84
2023/04/29 06:27:29;;;;;;;;;;;;;;;12.19;nan;100429.94;5033605;28;19923;-84
2023/04/29 06:29:54;;;;;;;;;;;;;;;12.24;nan;100426.81;5032773;28;19927;-84
2023/04/29 06:32:20;;;;;;;;;;;;;;;12.28;nan;100431.63;5024217;28;20320;-84
2023/04/29 06:34:45;;;;;;;;;;;;;;;12.29;nan;100432.44;5040776;28;19921;-84
2023/04/29 06:37:10;;;;;;;;;;;;;;;12.26;nan;100446.84;5037559;28;19932;-84
2023/04/29 06:39:36;;;;;;;;;;;;;;;12.30;nan;100439.41;5040709;28;19916;-84
2023/04/29 06:42:02;;;;;;;;;;;;;;;12.42;nan;100440.72;5023563;28;19924;-84
2023/04/29 06:44:27;;;;;;;;;;;;;;;12.59;nan;100446.03;5046600;28;20007;-83
2023/04/29 06:46:53;;;;;;;;;;;;;;;12.68;nan;100445.88;5050961;28;20015;-84
2023/04/29 06:49:18;;;;;;;;;;;;;;;12.76;nan;100450.31;5038579;28;20289;-84
2023/04/29 06:51:43;;;;;;;;;;;;;;;12.82;nan;100456.78;5039947;28;19971;-84
2023/04/29 06:54:08;;;;;;;;;;;;;;;12.87;nan;100455.28;5028204;28;19921;-84
2023/04/29 06:56:34;;;;;;;;;;;;;;;12.85;nan;100454.63;5033189;28;19925;-84
2023/04/29 06:58:59;;;;;;;;;;;;;;;12.86;nan;100458.91;5032931;28;20327;-84
2023/04/29 07:01:24;;;;;;;;;;;;;;;12.96;nan;100466.69;5042502;28;19948;-84
2023/04/29 07:03:49;;;;;;;;;;;;;;;13.03;nan;100469.50;5032410;28;20007;-84
2023/04/29 07:06:15;;;;;;;;;;;;;;;13.00;nan;100467.22;5031457;28;19921;-84
2023/04/29 07:08:40;;;;;;;;;;;;;;;12.93;nan;100467.88;5030486;28;20084;-84
2023/04/29 07:11:05;;;;;;;;;;;;;;;12.91;nan;100472.50;5032754;28;19925;-84
2023/04/29 07:13:30;;;;;;;;;;;;;;;12.92;nan;100481.31;5030962;28;19921;-83
2023/04/29 07:15:55;;;;;;;;;;;;;;;12.96;nan;100485.28;5050055;28;20003;-84
2023/04/29 07:18:21;;;;;;;;;;;;;;;12.98;nan;100485.13;5024533;28;20309;-84
2023/04/29 07:20:46;;;;;;;;;;;;;;;13.04;nan;100495.06;5040281;28;19929;-84
2023/04/29 07:23:12;;;;;;;;;;;;;;;13.14;nan;100495.72;5044642;28;19916;-84
2023/04/29 07:25:37;;;;;;;;;;;;;;;13.04;nan;100500.34;5048611;28;19970;-84
2023/04/29 07:28:03;;;;;;;;;;;;;;;13.03;nan;100509.34;5031047;28;19923;-84
2023/04/29 07:30:28;;;;;;;;;;;;;;;13.02;nan;100505.03;5045227;28;20403;-84
2023/04/29 07:32:53;;;;;;;;;;;;;;;12.92;nan;100513.19;5032070;28;19916;-84
2023/04/29 07:35:19;;;;;;;;;;;;;;;12.85;nan;100507.69;5033024;28;19952;-84
2023/04/29 07:37:44;;;;;;;;;;;;;;;12.85;nan;100512.19;5043174;28;19929;-83
2023/04/29 07:40:10;;;;;;;;;;;;;;;12.75;nan;100510.53;5032923;28;19921;-84
2023/04/29 07:42:35;;;;;;;;;;;;;;;12.83;nan;100512.34;5031303;28;20496;-84
2023/04/29 07:45:00;;;;;;;;;;;;;;;12.75;nan;100512.31;5034219;28;19921;-84
2023/04/29 07:47:26;;;;;;;;;;;;;;;12.78;nan;100511.19;5022352;28;19928;-83
2023/04/29 07:49:51;;;;;;;;;;;;;;;13.00;nan;100515.81;5034442;28;19927;-84
2023/04/29 07:52:17;;;;;;;;;;;;;;;13.01;nan;100522.75;5054637;28;19927;-84
2023/04/29 07:54:42;;;;;;;;;;;;;;;13.15;nan;100521.25;5043120;28;19921;-84
2023/04/29 07:57:08;;;;;;;;;;;;;;;13.46;nan;100526.69;5034327;28;19951;-84
2023/04/29 07:59:33;;;;;;;;;;;;;;;13.49;nan;100530.81;5037779;28;19916;-84
2023/04/29 08:01:58;;;;;;;;;;;;;;;13.60;nan;100533.13;5041877;28;19924;-84
2023/04/29 08:04:24;;;;;;;;;;;;;;;13.73;nan;100535.22;5048873;28;20394;-84
2023/04/29 08:06:49;;;;;;;;;;;;;;;13.84;nan;100534.03;5028820;28;19971;-84
2023/04/29 08:09:15;;;;;;;;;;;;;;;13.85;nan;100535.69;5032167;28;19921;-84
2023/04/29 08:11:40;;;;;;;;;;;;;;;13.88;nan;100546.00;5029267;28;19921;-84
2023/04/29 08:14:05;;;;;;;;;;;;;;;13.69;nan;100545.38;5030209;28;20479;-84
2023/04/29 08:16:31;;;;;;;;;;;;;;;13.66;nan;100548.41;5048127;28;19964;-85
2023/04/29 08:18:56;;;;;;;;;;;;;;;13.70;nan;100547.03;5027883;28;20293;-85
2023/04/29 08:21:22;;;;;;;;;;;;;;;13.61;nan;100550.75;5033209;28;19916;-85
2023/04/29 08:23:47;;;;;;;;;;;;;;;13.50;nan;100549.25;5032161;28;19929;-85
2023/04/29 08:26:12;;;;;;;;;;;;;;;13.46;nan;100563.88;5031949;28;20573;-85
2023/04/29 08:28:38;;;;;;;;;;;;;;;13.42;nan;100565.25;5031087;28;19920;-83
2023/04/29 08:31:06;;;;;;;;;;;;;;;13.41;nan;100558.25;5042770;28;19979;-84
2023/04/29 08:33:31;;;;;;;;;;;;;;;13.43;nan;100561.56;5032709;28;19928;-81
2023/04/29 08:35:58;;;;;;;;;;;;;;;13.32;nan;100562.78;5042978;28;19955;-82
2023/04/29 08:38:24;;;;;;;;;;;;;;;13.32;nan;100567.22;5045364;28;20407;-82
2023/04/29 08:40:49;;;;;;;;;;;;;;;13.34;nan;100566.06;5028708;28;19921;-82
2023/04/29 08:43:15;;;;;;;;;;;;;;;13.37;nan;100564.88;5027604;28;20474;-81
2023/04/29 08:45:41;;;;;;;;;;;;;;;13.36;nan;100563.25;5034257;28;20300;-84
2023/04/29 08:48:06;;;;;;;;;;;;;;;13.35;nan;100573.03;5043062;28;19951;-86
2023/04/29 08:50:35;;;;;;;;;;;;;;;13.24;nan;100575.19;5043244;28;19921;-88
2023/04/29 08:53:01;;;;;;;;;;;;;;;13.31;nan;100574.38;5038229;28;20177;-84
2023/04/29 08:55:26;;;;;;;;;;;;;;;13.46;nan;100569.19;5053976;28;19963;-84
2023/04/29 08:57:53;;;;;;;;;;;;;;;13.69;nan;100571.13;5050147;28;19955;-83
2023/04/29 09:00:18;;;;;;;;;;;;;;;13.79;nan;100566.44;5036518;28;19924;-83
2023/04/29 09:02:45;;;;;;;;;;;;;;;14.03;nan;100579.63;5033647;28;20001;-83
2023/04/29 09:05:11;;;;;;;;;;;;;;;14.21;nan;100579.41;5052730;28;19932;-82
2023/04/29 09:07:40;;;;;;;;;;;;;;;14.37;nan;100580.28;5048313;28;19988;-85
2023/04/29 09:10:05;;;;;;;;;;;;;;;14.36;nan;100581.31;5037868;28;19932;-85
2023/04/29 09:12:31;;;;;;;;;;;;;;;14.32;nan;100575.50;5053968;28;19921;-86
2023/04/29 09:14:56;;;;;;;;;;;;;;;14.29;nan;100578.50;5038461;28;20396;-86
2023/04/29 09:17:37;;;;;;;;;;;;;;;14.27;nan;100587.66;5037726;28;19925;-85
2023/04/29 09:20:22;;;;;;;;;;;;;;;14.27;nan;100591.16;5033384;28;19925;-83
2023/04/29 09:22:51;;;;;;;;;;;;;;;14.14;nan;100593.56;5030618;28;20406;-82
2023/04/29 09:25:16;;;;;;;;;;;;;;;14.08;nan;100594.25;5052446;28;19983;-84
2023/04/29 09:27:41;;;;;;;;;;;;;;;14.14;nan;100594.38;5050377;28;20391;-84
2023/04/29 09:30:08;;;;;;;;;;;;;;;13.97;nan;100593.63;5047115;28;20315;-86
2023/04/29 09:32:33;;;;;;;;;;;;;;;13.92;nan;100589.81;5034563;28;20730;-87
2023/04/29 09:35:18;;;;;;;;;;;;;;;13.89;nan;100583.00;5038613;28;19921;-83
2023/04/29 09:37:43;;;;;;;;;;;;;;;13.87;nan;100595.66;5050874;28;20490;-82
2023/04/29 09:40:26;;;;;;;;;;;;;;;14.01;nan;100605.59;5050491;28;19927;-84
2023/04/29 09:42:51;;;;;;;;;;;;;;;13.97;nan;100595.47;5048943;28;19925;-85
2023/04/29 09:45:31;;;;;;;;;;;;;;;14.10;nan;100597.56;5036108;28;20027;-80
2023/04/29 09:48:03;;;;;;;;;;;;;;;14.31;nan;100594.31;5036451;28;19921;-88
2023/04/29 09:50:29;;;;;;;;;;;;;;;14.61;nan;100597.97;5061816;28;19970;-88
2023/04/29 09:52:54;;;;;;;;;;;;;;;14.73;nan;100601.91;5030476;28;19921;-82
2023/04/29 09:55:19;;;;;;;;;;;;;;;14.81;nan;100598.34;5032328;28;20365;-83
2023/04/29 09:57:46;;;;;;;;;;;;;;;14.90;nan;100599.94;5048506;28;19934;-82
2023/04/29 10:00:14;;;;;;;;;;;;;;;14.82;nan;100605.31;5042998;28;19940;-84
2023/04/29 10:02:41;;;;;;;;;;;;;;;14.69;nan;100605.09;5034880;28;19927;-85
2023/04/29 10:05:09;;;;;;;;;;;;;;;14.43;nan;100612.34;5053929;28;19960;-85
2023/04/29 10:07:34;;;;;;;;;;;;;;;14.27;nan;100614.28;5049567;28;19927;-84
2023/04/29 10:10:01;;;;;;;;;;;;;;;14.28;nan;100607.94;5035780;28;20339;-84
2023/04/29 10:12:26;;;;;;;;;;;;;;;14.37;nan;100607.75;5046520;28;19924;-85
2023/04/29 10:14:56;;;;;;;;;;;;;;;14.49;nan;100616.16;5036135;28;19920;-84
2023/04/29 10:17:34;;;;;;;;;;;;;;;14.55;nan;100607.50;5051836;28;19933;-85
2023/04/29 10:20:06;;;;;;;;;;;;;;;14.64;nan;100611.75;5050720;28;19947;-84
2023/04/29 10:22:35;;;;;;;;;;;;;;;14.70;nan;100614.72;5029251;28;19982;-85
2023/04/29 10:25:00;;;;;;;;;;;;;;;14.92;nan;100610.41;5029318;28;20011;-84
2023/04/29 10:27:30;;;;;;;;;;;;;;;15.05;nan;100613.31;5043473;28;19987;-84
2023/04/29 10:29:59;;;;;;;;;;;;;;;14.96;nan;100612.53;5054413;28;19921;-85
2023/04/29 10:32:26;;;;;;;;;;;;;;;14.91;nan;100616.75;5067636;22;19933;-87
2023/04/29 10:34:54;;;;;;;;;;;;;;;14.98;nan;100612.38;5045465;28;19990;-86
2023/04/29 10:37:29;;;;;;;;;;;;;;;15.12;nan;100608.91;5050759;28;19917;-86
2023/04/29 10:39:55;;;;;;;;;;;;;;;15.48;nan;100609.06;5059746;28;19921;-87
2023/04/29 10:42:25;;;;;;;;;;;;;;;15.95;nan;100608.97;5044344;28;19921;-87
2023/04/29 10:45:19;;;;;;;;;;;;;;;16.37;nan;100602.91;5054057;28;20319;-86
2023/04/29 10:48:07;;;;;;;;;;;;;;;16.45;nan;100609.97;5032807;28;20051;-86
2023/04/29 10:50:47;;;;;;;;;;;;;;;15.96;nan;100614.09;5037507;28;19920;-86
2023/04/29 10:53:14;;;;;;;;;;;;;;;15.71;nan;100616.22;5032601;28;20153;-86
2023/04/29 10:55:39;;;;;;;;;;;;;;;15.61;nan;100607.63;5031422;28;19920;-87
2023/04/29 10:58:05;;;;;;;;;;;;;;;15.72;nan;100615.19;5036753;28;19955;-86
2023/04/29 11:00:31;;;;;;;;;;;;;;;15.62;nan;100609.28;5032273;28;19920;-87
2023/04/29 11:03:01;;;;;;;;;;;;;;;15.71;nan;100617.03;5033700;28;19921;-86
2023/04/29 11:05:29;;;;;;;;;;;;;;;15.77;nan;100617.31;5032571;28;19925;-87
2023/04/29 11:08:15;;;;;;;;;;;;;;;15.84;nan;100615.56;5030860;28;19921;-86
2023/04/29 11:10:41;;;;;;;;;;;;;;;15.88;nan;100614.19;5030867;28;19928;-86
2023/04/29 11:13:28;;;;;;;;;;;;;;;15.96;nan;100618.59;5033402;28;19928;-87
2023/04/29 11:16:10;;;;;;;;;;;;;;;16.23;nan;100606.41;5030185;28;20582;-86
2023/04/29 11:18:55;;;;;;;;;;;;;;;16.12;nan;100613.91;5029943;28;19920;-86
2023/04/29 11:21:21;;;;;;;;;;;;;;;16.22;nan;100607.44;5025713;28;19982;-86
2023/04/29 11:23:46;;;;;;;;;;;;;;;16.41;nan;100606.03;5030042;28;20019;-86
2023/04/29 11:26:15;;;;;;;;;;;;;;;16.40;nan;100607.03;5033795;28;20387;-88
2023/04/29 11:28:41;;;;;;;;;;;;;;;16.49;nan;100609.41;5034252;28;19921;-87
2023/04/29 11:31:08;;;;;;;;;;;;;;;16.51;nan;100615.38;5031469;28;19920;-87
2023/04/29 11:33:42;;;;;;;;;;;;;;;16.31;nan;100607.16;5031571;28;19928;-86
2023/04/29 11:36:20;;;;;;;;;;;;;;;15.97;nan;100612.25;5030320;28;19964;-86
2023/04/29 11:39:12;;;;;;;;;;;;;;;15.70;nan;100617.22;5033951;28;20090;-86
2023/04/29 11:41:47;;;;;;;;;;;;;;;15.78;nan;100619.81;5048654;28;19925;-86
2023/04/29 11:44:13;;;;;;;;;;;;;;;15.86;nan;100621.56;5010170;28;19926;-86
2023/04/29 11:46:38;;;;;;;;;;;;;;;15.78;nan;100626.97;5031012;28;19951;-85
2023/04/29 11:49:10;;;;;;;;;;;;;;;15.73;nan;100621.34;5034869;28;19924;-85
2023/04/29 11:51:36;;;;;;;;;;;;;;;15.75;nan;100622.81;5032635;28;20012;-86
2023/04/29 11:54:01;;;;;;;;;;;;;;;15.63;nan;100617.09;5001025;28;20385;-85
2023/04/29 11:56:27;;;;;;;;;;;;;;;15.82;nan;100618.41;5026557;28;20965;-85
2023/04/29 11:58:55;;;;;;;;;;;;;;;15.85;nan;100627.88;5032911;28;19925;-87
2023/04/29 12:01:21;;;;;;;;;;;;;;;16.09;nan;100626.78;5045153;28;19921;-87
2023/04/29 12:03:47;;;;;;;;;;;;;;;16.43;nan;100623.50;5026761;28;19956;-87
2023/04/29 12:06:13;;;;;;;;;;;;;;;16.38;nan;100623.25;5029209;28;20036;-87
2023/04/29 12:08:39;;;;;;;;;;;;;;;16.56;nan;100631.69;5033554;28;19920;-86
2023/04/29 12:11:05;;;;;;;;;;;;;;;16.63;nan;100628.22;5021487;28;20033;-87
2023/04/29 12:13:34;;;;;;;;;;;;;;;16.97;nan;100627.56;5044237;28;19956;-87
2023/04/29 12:15:59;;;;;;;;;;;;;;;16.81;nan;100630.53;5026073;28;19972;-86
2023/04/29 12:18:26;;;;;;;;;;;;;;;16.55;nan;100635.34;5039601;28;19928;-87
2023/04/29 12:20:55;;;;;;;;;;;;;;;16.44;nan;100637.66;5038452;28;19929;-86
2023/04/29 12:23:23;;;;;;;;;;;;;;;16.30;nan;100632.19;5054952;28;19925;-87
2023/04/29 12:25:51;;;;;;;;;;;;;;;16.29;nan;100632.38;5038483;28;20639;-86
2023/04/29 12:28:16;;;;;;;;;;;;;;;16.32;nan;100632.81;5036188;28;19925;-87
2023/04/29 12:30:45;;;;;;;;;;;;;;;16.38;nan;100631.25;5036535;28;19987;-85
2023/04/29 12:33:14;;;;;;;;;;;;;;;16.64;nan;100646.75;5040674;28;19967;-86
2023/04/29 12:35:39;;;;;;;;;;;;;;;16.84;nan;100640.81;5036485;28;19925;-86
2023/04/29 12:38:05;;;;;;;;;;;;;;;17.06;nan;100645.13;5052086;28;19935;-87
2023/04/29 12:40:31;;;;;;;;;;;;;;;17.32;nan;100644.53;5034026;28;19920;-86
2023/04/29 12:42:57;;;;;;;;;;;;;;;17.09;nan;100641.25;5034025;28;19928;-86
2023/04/29 12:45:29;;;;;;;;;;;;;;;17.31;nan;100636.72;5028782;28;19996;-87
2023/04/29 12:47:56;;;;;;;;;;;;;;;17.61;nan;100640.03;5028243;28;19920;-87
2023/04/29 12:50:29;;;;;;;;;;;;;;;17.70;nan;100652.22;5025079;28;19921;-87
2023/04/29 12:52:55;;;;;;;;;;;;;;;17.47;nan;100646.28;5047547;28;19948;-86
2023/04/29 12:55:20;;;;;;;;;;;;;;;17.64;nan;100650.34;5030897;28;19953;-86